Time,TemperatureF,DewpointF,PressureIn,WindDirection,WindDirectionDegrees,WindSpeedMPH,WindSpeedGustMPH,Humidity,HourlyPrecipIn,Conditions,Clouds,dailyrainin,SolarRadiationWatts/m^2,SoftwareType,DateUTC
2013-06-14 00:11:00,46.0,40.0,30.09,North,0,0.0,0.0,79,-99.99,,,-99.99,7.100000,,2013-06-14 08:11:00,
2013-06-14 00:43:00,43.0,38.0,30.10,North,0,0.0,0.0,82,-99.99,,,-99.99,3.100000,,2013-06-14 08:43:00,
2013-06-14 00:52:00,42.0,37.0,30.10,North,0,0.0,0.0,83,-99.99,,,-99.99,2.000000,,2013-06-14 08:52:00,
2013-06-14 01:01:00,42.0,37.0,30.10,North,0,0.0,0.0,81,-99.99,,,-99.99,1.600000,,2013-06-14 09:01:00,
2013-06-14 01:11:00,42.0,37.0,30.10,North,0,0.0,0.0,82,-99.99,,,-99.99,1.300000,,2013-06-14 09:11:00,
2013-06-14 01:33:00,42.0,38.0,30.11,North,0,0.0,0.0,85,-99.99,,,-99.99,1.200000,,2013-06-14 09:33:00,
2013-06-14 01:43:00,42.0,38.0,30.11,North,0,0.0,0.0,84,-99.99,,,-99.99,1.000000,,2013-06-14 09:43:00,
2013-06-14 01:52:00,41.0,36.0,30.11,North,0,0.0,0.0,82,-99.99,,,-99.99,0.800000,,2013-06-14 09:52:00,
2013-06-14 02:01:00,40.0,36.0,30.11,North,0,0.0,0.0,83,-99.99,,,-99.99,0.800000,,2013-06-14 10:01:00,
2013-06-14 02:11:00,39.0,36.0,30.11,North,0,0.0,0.0,87,-99.99,,,-99.99,0.800000,,2013-06-14 10:11:00,
2013-06-14 02:21:00,37.0,34.0,30.11,North,0,0.0,0.0,89,-99.99,,,-99.99,1.000000,,2013-06-14 10:21:00,
2013-06-14 02:33:00,38.0,35.0,30.11,North,0,0.0,0.0,87,-99.99,,,-99.99,1.000000,,2013-06-14 10:33:00,
2013-06-14 02:43:00,38.0,35.0,30.11,North,0,0.0,0.0,87,-99.99,,,-99.99,1.200000,,2013-06-14 10:43:00,
2013-06-14 02:52:00,37.0,34.0,30.12,North,0,0.0,0.0,88,-99.99,,,-99.99,1.500000,,2013-06-14 10:52:00,
2013-06-14 03:01:00,37.0,34.0,30.12,North,0,0.0,0.0,90,-99.99,,,-99.99,1.800000,,2013-06-14 11:01:00,
2013-06-14 03:11:00,36.0,34.0,30.12,North,0,0.0,0.0,91,-99.99,,,-99.99,1.900000,,2013-06-14 11:11:00,
2013-06-14 03:22:00,35.0,34.0,30.12,North,0,0.0,0.0,93,-99.99,,,-99.99,2.200000,,2013-06-14 11:22:00,
2013-06-14 03:32:00,35.0,34.0,30.12,North,0,0.0,0.0,93,-99.99,,,-99.99,2.800000,,2013-06-14 11:32:00,
2013-06-14 03:43:00,35.0,33.0,30.12,SSE,162,0.0,2.0,92,-99.99,,,-99.99,4.500000,,2013-06-14 11:43:00,
2013-06-14 03:52:00,35.0,33.0,30.12,North,0,0.0,0.0,94,-99.99,,,-99.99,5.200000,,2013-06-14 11:52:00,
2013-06-14 04:01:00,36.0,33.0,30.13,North,0,0.0,0.0,91,-99.99,,,-99.99,7.100000,,2013-06-14 12:01:00,
2013-06-14 04:11:00,34.0,33.0,30.13,North,0,0.0,0.0,97,-99.99,,,-99.99,7.800000,,2013-06-14 12:11:00,
2013-06-14 04:22:00,34.0,33.0,30.13,North,0,0.0,0.0,95,-99.99,,,-99.99,8.500000,,2013-06-14 12:22:00,
2013-06-14 04:32:00,34.0,32.0,30.13,North,0,0.0,0.0,93,-99.99,,,-99.99,10.000000,,2013-06-14 12:32:00,
2013-06-14 04:43:00,34.0,33.0,30.14,North,0,0.0,0.0,93,-99.99,,,-99.99,13.200000,,2013-06-14 12:43:00,
2013-06-14 04:52:00,33.0,32.0,30.14,North,0,0.0,0.0,95,-99.99,,,-99.99,14.100000,,2013-06-14 12:52:00,
2013-06-14 05:01:00,34.0,33.0,30.14,North,0,0.0,0.0,93,-99.99,,,-99.99,15.800000,,2013-06-14 13:01:00,
2013-06-14 05:11:00,33.0,32.0,30.14,North,0,0.0,0.0,95,-99.99,,,-99.99,16.600000,,2013-06-14 13:11:00,
2013-06-14 05:22:00,35.0,33.0,30.14,North,0,0.0,0.0,93,-99.99,,,-99.99,20.000000,,2013-06-14 13:22:00,
2013-06-14 05:33:00,35.0,33.0,30.14,North,0,0.0,0.0,93,-99.99,,,-99.99,20.000000,,2013-06-14 13:33:00,
2013-06-14 05:43:00,36.0,33.0,30.14,North,0,0.0,0.0,89,-99.99,,,-99.99,21.799999,,2013-06-14 13:43:00,
2013-06-14 05:52:00,37.0,35.0,30.14,North,0,0.0,0.0,90,-99.99,,,-99.99,24.600000,,2013-06-14 13:52:00,
2013-06-14 06:02:00,38.0,35.0,30.14,North,0,0.0,0.0,88,-99.99,,,-99.99,26.400000,,2013-06-14 14:02:00,
2013-06-14 06:11:00,40.0,36.0,30.14,North,0,0.0,0.0,85,-99.99,,,-99.99,30.200001,,2013-06-14 14:11:00,
2013-06-14 06:22:00,40.0,36.0,30.15,North,0,0.0,0.0,85,-99.99,,,-99.99,48.599998,,2013-06-14 14:22:00,
2013-06-14 06:33:00,42.0,37.0,30.15,North,0,0.0,0.0,83,-99.99,,,-99.99,161.800003,,2013-06-14 14:33:00,
2013-06-14 06:43:00,43.0,39.0,30.15,North,0,0.0,0.0,84,-99.99,,,-99.99,172.500000,,2013-06-14 14:43:00,
2013-06-14 06:52:00,45.0,39.0,30.15,North,0,0.0,0.0,81,-99.99,,,-99.99,47.000000,,2013-06-14 14:52:00,
2013-06-14 07:01:00,45.0,39.0,30.15,North,0,0.0,0.0,79,-99.99,,,-99.99,166.100006,,2013-06-14 15:01:00,
2013-06-14 07:11:00,47.0,40.0,30.15,North,0,0.0,0.0,78,-99.99,,,-99.99,209.199997,,2013-06-14 15:11:00,
2013-06-14 07:22:00,49.0,40.0,30.15,North,0,0.0,0.0,72,-99.99,,,-99.99,226.699997,,2013-06-14 15:22:00,
2013-06-14 07:33:00,50.0,42.0,30.15,North,0,0.0,0.0,74,-99.99,,,-99.99,253.800003,,2013-06-14 15:33:00,
2013-06-14 07:43:00,51.0,43.0,30.15,North,0,0.0,0.0,73,-99.99,,,-99.99,262.399994,,2013-06-14 15:43:00,
2013-06-14 07:52:00,53.0,43.0,30.15,North,0,0.0,0.0,68,-99.99,,,-99.99,281.000000,,2013-06-14 15:52:00,
2013-06-14 08:01:00,53.0,43.0,30.16,North,0,0.0,0.0,68,-99.99,,,-99.99,290.700012,,2013-06-14 16:01:00,
2013-06-14 08:11:00,55.0,44.0,30.16,North,0,0.0,0.0,64,-99.99,,,-99.99,317.799988,,2013-06-14 16:11:00,
2013-06-14 08:22:00,56.0,45.0,30.16,North,0,0.0,0.0,66,-99.99,,,-99.99,326.600006,,2013-06-14 16:22:00,
2013-06-14 08:32:00,59.0,45.0,30.16,North,0,0.0,0.0,58,-99.99,,,-99.99,366.500000,,2013-06-14 16:32:00,
2013-06-14 08:43:00,59.0,45.0,30.16,North,0,0.0,0.0,58,-99.99,,,-99.99,366.500000,,2013-06-14 16:43:00,
2013-06-14 08:52:00,62.0,43.0,30.16,North,0,0.0,0.0,49,-99.99,,,-99.99,393.799988,,2013-06-14 16:52:00,
2013-06-14 09:02:00,62.0,43.0,30.16,North,0,0.0,0.0,49,-99.99,,,-99.99,404.000000,,2013-06-14 17:02:00,
2013-06-14 09:11:00,64.0,44.0,30.16,North,0,0.0,0.0,46,-99.99,,,-99.99,432.500000,,2013-06-14 17:11:00,
2013-06-14 09:22:00,65.0,43.0,30.16,North,352,0.0,3.0,44,-99.99,,,-99.99,440.899994,,2013-06-14 17:22:00,
2013-06-14 09:34:00,66.0,42.0,30.16,NNW,345,0.0,3.0,41,-99.99,,,-99.99,469.600006,,2013-06-14 17:34:00,
2013-06-14 09:43:00,66.0,40.0,30.16,North,0,0.0,0.0,38,-99.99,,,-99.99,479.000000,,2013-06-14 17:43:00,
2013-06-14 09:53:00,67.0,38.0,30.16,North,359,0.0,2.0,34,-99.99,,,-99.99,507.100006,,2013-06-14 17:53:00,
2013-06-14 10:02:00,67.0,37.0,30.16,North,0,0.0,0.0,33,-99.99,,,-99.99,516.599976,,2013-06-14 18:02:00,
2013-06-14 10:11:00,67.0,37.0,30.16,North,0,0.0,0.0,32,-99.99,,,-99.99,536.099976,,2013-06-14 18:11:00,
2013-06-14 10:21:00,69.0,37.0,30.18,North,0,0.0,0.0,31,-99.99,,,-99.99,567.000000,,2013-06-14 18:21:00,
2013-06-14 10:32:00,69.0,38.0,30.18,North,0,0.0,0.0,32,-99.99,,,-99.99,584.200012,,2013-06-14 18:32:00,
2013-06-14 10:42:00,69.0,38.0,30.18,NW,312,0.0,0.0,32,-99.99,,,-99.99,589.900024,,2013-06-14 18:42:00,
2013-06-14 10:52:00,69.0,37.0,30.18,WNW,287,0.0,1.0,31,-99.99,,,-99.99,612.500000,,2013-06-14 18:52:00,
2013-06-14 11:01:00,69.0,37.0,30.18,WNW,287,0.0,1.0,31,-99.99,,,-99.99,612.500000,,2013-06-14 19:01:00,
2013-06-14 11:11:00,70.0,39.0,30.18,North,0,0.0,0.0,31,-99.99,,,-99.99,627.099976,,2013-06-14 19:11:00,
2013-06-14 11:21:00,69.0,38.0,30.18,North,0,0.0,0.0,31,-99.99,,,-99.99,634.900024,,2013-06-14 19:21:00,
2013-06-14 11:32:00,70.0,38.0,30.18,NNW,329,0.0,1.0,31,-99.99,,,-99.99,656.099976,,2013-06-14 19:32:00,
2013-06-14 11:43:00,71.0,39.0,30.18,North,11,1.0,5.0,31,-99.99,,,-99.99,680.299988,,2013-06-14 19:43:00,
2013-06-14 11:53:00,71.0,38.0,30.18,North,0,0.0,0.0,30,-99.99,,,-99.99,686.700012,,2013-06-14 19:53:00,
2013-06-14 12:01:00,72.0,39.0,30.18,North,6,0.0,2.0,30,-99.99,,,-99.99,694.400024,,2013-06-14 20:01:00,
2013-06-14 12:11:00,72.0,38.0,30.18,NNE,12,1.0,4.0,28,-99.99,,,-99.99,716.900024,,2013-06-14 20:11:00,
2013-06-14 12:21:00,71.0,37.0,30.18,NNW,340,1.0,4.0,28,-99.99,,,-99.99,721.299988,,2013-06-14 20:21:00,
2013-06-14 12:33:00,73.0,37.0,30.18,NW,316,0.0,3.0,27,-99.99,,,-99.99,735.000000,,2013-06-14 20:33:00,
2013-06-14 12:43:00,72.0,37.0,30.18,NNE,22,1.0,6.0,27,-99.99,,,-99.99,740.200012,,2013-06-14 20:43:00,
2013-06-14 12:53:00,73.0,38.0,30.16,North,11,1.0,5.0,27,-99.99,,,-99.99,747.900024,,2013-06-14 20:53:00,
2013-06-14 13:01:00,72.0,36.0,30.16,South,177,0.0,4.0,26,-99.99,,,-99.99,755.099976,,2013-06-14 21:01:00,
2013-06-14 13:11:00,73.0,37.0,30.16,WNW,303,0.0,5.0,26,-99.99,,,-99.99,756.599976,,2013-06-14 21:11:00,
2013-06-14 13:22:00,73.0,37.0,30.16,NNE,14,1.0,5.0,26,-99.99,,,-99.99,762.599976,,2013-06-14 21:22:00,
2013-06-14 13:33:00,73.0,36.0,30.16,NNE,21,4.0,10.0,26,-99.99,,,-99.99,767.700012,,2013-06-14 21:33:00,
2013-06-14 13:42:00,73.0,35.0,30.16,NNW,339,0.0,3.0,24,-99.99,,,-99.99,772.799988,,2013-06-14 21:42:00,
2013-06-14 13:52:00,73.0,36.0,30.16,WNW,303,0.0,4.0,25,-99.99,,,-99.99,777.700012,,2013-06-14 21:52:00,
2013-06-14 14:01:00,73.0,34.0,30.16,East,87,0.0,3.0,24,-99.99,,,-99.99,780.000000,,2013-06-14 22:01:00,
2013-06-14 14:11:00,74.0,35.0,30.16,WSW,247,1.0,8.0,24,-99.99,,,-99.99,780.599976,,2013-06-14 22:11:00,
2013-06-14 14:22:00,74.0,35.0,30.16,NNE,21,2.0,9.0,24,-99.99,,,-99.99,780.700012,,2013-06-14 22:22:00,
2013-06-14 14:33:00,74.0,34.0,30.16,North,357,1.0,5.0,23,-99.99,,,-99.99,782.400024,,2013-06-14 22:33:00,
2013-06-14 14:43:00,75.0,35.0,30.16,NNW,343,1.0,5.0,22,-99.99,,,-99.99,779.900024,,2013-06-14 22:43:00,
2013-06-14 14:52:00,74.0,33.0,30.16,NNW,347,0.0,3.0,22,-99.99,,,-99.99,778.500000,,2013-06-14 22:52:00,
2013-06-14 15:01:00,75.0,32.0,30.16,NE,38,0.0,3.0,20,-99.99,,,-99.99,769.400024,,2013-06-14 23:01:00,
2013-06-14 15:11:00,75.0,33.0,30.16,North,0,0.0,0.0,21,-99.99,,,-99.99,763.299988,,2013-06-14 23:11:00,
2013-06-14 15:22:00,75.0,31.0,30.16,NW,325,0.0,1.0,20,-99.99,,,-99.99,756.599976,,2013-06-14 23:22:00,
2013-06-14 15:32:00,75.0,31.0,30.16,NE,35,0.0,5.0,19,-99.99,,,-99.99,760.099976,,2013-06-14 23:32:00,
2013-06-14 15:43:00,75.0,30.0,30.16,SE,136,1.0,5.0,18,-99.99,,,-99.99,745.400024,,2013-06-14 23:43:00,
2013-06-14 15:52:00,75.0,30.0,30.16,SE,136,1.0,5.0,18,-99.99,,,-99.99,745.400024,,2013-06-14 23:52:00,
2013-06-14 16:01:00,76.0,34.0,30.15,West,263,1.0,6.0,21,-99.99,,,-99.99,735.400024,,2013-06-15 00:01:00,
2013-06-14 16:11:00,76.0,32.0,30.15,West,279,1.0,9.0,19,-99.99,,,-99.99,721.799988,,2013-06-15 00:11:00,
2013-06-14 16:22:00,76.0,35.0,30.15,WNW,296,1.0,5.0,22,-99.99,,,-99.99,714.099976,,2013-06-15 00:22:00,
2013-06-14 16:33:00,76.0,33.0,30.15,NW,326,1.0,4.0,20,-99.99,,,-99.99,693.200012,,2013-06-15 00:33:00,
2013-06-14 16:43:00,76.0,33.0,30.15,NW,305,1.0,5.0,20,-99.99,,,-99.99,685.500000,,2013-06-15 00:43:00,
2013-06-14 16:52:00,77.0,31.0,30.15,WSW,256,1.0,8.0,18,-99.99,,,-99.99,666.599976,,2013-06-15 00:52:00,
2013-06-14 17:01:00,77.0,31.0,30.15,WSW,256,0.0,2.0,18,-99.99,,,-99.99,659.900024,,2013-06-15 01:01:00,
2013-06-14 17:11:00,77.0,31.0,30.15,WNW,296,0.0,4.0,18,-99.99,,,-99.99,638.900024,,2013-06-15 01:11:00,
2013-06-14 17:22:00,76.0,30.0,30.15,WNW,302,1.0,5.0,17,-99.99,,,-99.99,631.900024,,2013-06-15 01:22:00,
2013-06-14 17:33:00,77.0,30.0,30.15,WNW,283,1.0,5.0,17,-99.99,,,-99.99,608.000000,,2013-06-15 01:33:00,
2013-06-14 17:42:00,77.0,31.0,30.15,NW,304,0.0,6.0,18,-99.99,,,-99.99,590.799988,,2013-06-15 01:42:00,
2013-06-14 17:54:00,77.0,32.0,30.15,NW,313,0.0,3.0,19,-99.99,,,-99.99,572.900024,,2013-06-15 01:54:00,
2013-06-14 18:02:00,77.0,32.0,30.15,NNW,331,0.0,4.0,19,-99.99,,,-99.99,556.299988,,2013-06-15 02:02:00,
2013-06-14 18:11:00,77.0,32.0,30.15,NNW,341,0.0,4.0,19,-99.99,,,-99.99,545.700012,,2013-06-15 02:11:00,
2013-06-14 18:22:00,77.0,30.0,30.15,NE,52,2.0,5.0,18,-99.99,,,-99.99,537.200012,,2013-06-15 02:22:00,
2013-06-14 18:33:00,77.0,30.0,30.15,SW,229,0.0,2.0,17,-99.99,,,-99.99,510.700012,,2013-06-15 02:33:00,
2013-06-14 18:42:00,77.0,31.0,30.15,WNW,299,0.0,5.0,18,-99.99,,,-99.99,492.100006,,2013-06-15 02:42:00,
2013-06-14 18:53:00,77.0,37.0,30.15,NW,324,0.0,1.0,23,-99.99,,,-99.99,463.500000,,2013-06-15 02:53:00,
2013-06-14 19:01:00,77.0,32.0,30.14,North,11,0.0,5.0,19,-99.99,,,-99.99,443.700012,,2013-06-15 03:01:00,
2013-06-14 19:11:00,77.0,32.0,30.14,NNE,18,1.0,5.0,19,-99.99,,,-99.99,426.799988,,2013-06-15 03:11:00,
2013-06-14 19:23:00,77.0,32.0,30.14,North,1,0.0,4.0,19,-99.99,,,-99.99,415.899994,,2013-06-15 03:23:00,
2013-06-14 19:32:00,76.0,39.0,30.15,NW,320,0.0,2.0,25,-99.99,,,-99.99,384.299988,,2013-06-15 03:32:00,
2013-06-14 19:43:00,77.0,31.0,30.15,North,2,0.0,4.0,18,-99.99,,,-99.99,363.299988,,2013-06-15 03:43:00,
2013-06-14 19:52:00,77.0,30.0,30.15,ESE,108,0.0,4.0,18,-99.99,,,-99.99,333.100006,,2013-06-15 03:52:00,
2013-06-14 20:01:00,77.0,33.0,30.15,WNW,292,0.0,2.0,19,-99.99,,,-99.99,326.000000,,2013-06-15 04:01:00,
2013-06-14 20:11:00,76.0,39.0,30.15,North,0,0.0,0.0,26,-99.99,,,-99.99,315.500000,,2013-06-15 04:11:00,
2013-06-14 20:21:00,76.0,33.0,30.15,NNE,13,0.0,5.0,20,-99.99,,,-99.99,284.399994,,2013-06-15 04:21:00,
2013-06-14 20:33:00,76.0,35.0,30.15,North,0,0.0,0.0,23,-99.99,,,-99.99,277.000000,,2013-06-15 04:33:00,
2013-06-14 20:43:00,75.0,38.0,30.15,North,4,0.0,2.0,26,-99.99,,,-99.99,257.700012,,2013-06-15 04:43:00,
2013-06-14 20:53:00,74.0,40.0,30.15,North,0,0.0,0.0,29,-99.99,,,-99.99,240.899994,,2013-06-15 04:53:00,
2013-06-14 21:02:00,72.0,39.0,30.15,North,0,0.0,0.0,30,-99.99,,,-99.99,214.000000,,2013-06-15 05:02:00,
2013-06-14 21:11:00,72.0,41.0,30.15,North,0,0.0,0.0,32,-99.99,,,-99.99,205.800003,,2013-06-15 05:11:00,
2013-06-14 21:22:00,70.0,42.0,30.16,North,0,0.0,0.0,36,-99.99,,,-99.99,188.100006,,2013-06-15 05:22:00,
2013-06-14 21:33:00,69.0,44.0,30.16,North,0,0.0,0.0,40,-99.99,,,-99.99,170.699997,,2013-06-15 05:33:00,
2013-06-14 21:42:00,68.0,43.0,30.16,North,0,0.0,0.0,40,-99.99,,,-99.99,151.100006,,2013-06-15 05:42:00,
2013-06-14 21:52:00,67.0,42.0,30.16,North,0,0.0,0.0,40,-99.99,,,-99.99,135.100006,,2013-06-15 05:52:00,
2013-06-14 22:02:00,66.0,40.0,30.16,North,0,0.0,0.0,39,-99.99,,,-99.99,125.400002,,2013-06-15 06:02:00,
2013-06-14 22:11:00,66.0,42.0,30.18,North,0,0.0,0.0,42,-99.99,,,-99.99,110.500000,,2013-06-15 06:11:00,
2013-06-14 22:24:00,64.0,42.0,30.18,North,0,0.0,0.0,44,-99.99,,,-99.99,100.099998,,2013-06-15 06:24:00,
2013-06-14 22:33:00,62.0,47.0,30.18,North,0,0.0,0.0,58,-99.99,,,-99.99,79.699997,,2013-06-15 06:33:00,
2013-06-14 22:43:00,60.0,41.0,30.18,North,0,0.0,0.0,50,-99.99,,,-99.99,55.400002,,2013-06-15 06:43:00,
2013-06-14 22:53:00,57.0,41.0,30.18,North,0,0.0,0.0,54,-99.99,,,-99.99,24.299999,,2013-06-15 06:53:00,
2013-06-14 23:01:00,57.0,41.0,30.18,North,0,0.0,0.0,54,-99.99,,,-99.99,19.100000,,2013-06-15 07:01:00,
2013-06-14 23:11:00,54.0,42.0,30.18,North,0,0.0,0.0,64,-99.99,,,-99.99,14.900000,,2013-06-15 07:11:00,
2013-06-14 23:23:00,54.0,42.0,30.18,North,0,0.0,0.0,62,-99.99,,,-99.99,13.400000,,2013-06-15 07:23:00,
2013-06-14 23:32:00,52.0,42.0,30.18,North,0,0.0,0.0,67,-99.99,,,-99.99,12.100000,,2013-06-15 07:32:00,
2013-06-14 23:43:00,51.0,42.0,30.20,SW,215,0.0,0.0,69,-99.99,,,-99.99,10.700000,,2013-06-15 07:43:00,
2013-06-14 23:53:00,52.0,40.0,30.20,North,0,0.0,0.0,64,-99.99,,,-99.99,8.800000,,2013-06-15 07:53:00,